createdAt,value
2017-10-01T00:00:29.637Z,99549.58
2017-10-01T00:02:59.756Z,99549.41
2017-10-01T00:05:29.980Z,99553.86
2017-10-01T00:07:59.595Z,99554.81
2017-10-01T00:10:30.787Z,99561.80
2017-10-01T00:13:03.431Z,99460.83
2017-10-01T00:15:35.238Z,99551.95
2017-10-01T00:18:06.668Z,99459.95
2017-10-01T00:20:39.072Z,99556.20
2017-10-01T00:23:14.640Z,99559.02
2017-10-01T00:25:44.757Z,99561.08
2017-10-01T00:28:15.060Z,99566.24
2017-10-01T00:30:46.041Z,99567.20
2017-10-01T00:33:15.489Z,99557.71
2017-10-01T00:35:46.436Z,99563.55
2017-10-01T00:38:16.105Z,99567.98
2017-10-01T00:40:46.154Z,99551.72
2017-10-01T00:43:15.696Z,99555.92
2017-10-01T00:45:45.544Z,99572.75
2017-10-01T00:48:15.300Z,99571.98
2017-10-01T00:50:44.997Z,99573.19
2017-10-01T00:53:14.837Z,99581.98
2017-10-01T00:55:44.682Z,99578.89
2017-10-01T00:58:15.129Z,99582.38
2017-10-01T01:00:45.123Z,99580.32
2017-10-01T01:03:19.555Z,99585.00
2017-10-01T01:05:54.992Z,99582.94
2017-10-01T01:08:36.764Z,99583.73
2017-10-01T01:11:07.945Z,99587.70
2017-10-01T01:13:38.983Z,99583.81
2017-10-01T01:16:09.114Z,99591.67
2017-10-01T01:18:38.875Z,99585.88
2017-10-01T01:21:10.140Z,99581.89
2017-10-01T01:23:40.243Z,99604.60
2017-10-01T01:26:09.937Z,99601.34
2017-10-01T01:28:40.172Z,99580.16
2017-10-01T01:31:09.828Z,99594.84
2017-10-01T01:33:39.301Z,99595.80
2017-10-01T01:36:10.850Z,99600.39
2017-10-01T01:38:42.245Z,99609.59
2017-10-01T01:41:11.781Z,99607.45
2017-10-01T01:43:44.442Z,99607.41
2017-10-01T01:46:14.678Z,99608.02
2017-10-01T01:48:44.938Z,99610.47
2017-10-01T01:51:15.335Z,99610.47
2017-10-01T01:53:45.310Z,99618.20
2017-10-01T01:56:15.120Z,99621.90
2017-10-01T01:58:45.304Z,99628.48
2017-10-01T02:01:18.831Z,99630.78
2017-10-01T02:03:56.299Z,99562.04
2017-10-01T02:06:26.788Z,99635.89
2017-10-01T02:09:04.926Z,99640.55
2017-10-01T02:11:35.161Z,99644.20
2017-10-01T02:14:06.184Z,99624.66
2017-10-01T02:16:35.939Z,99655.28
2017-10-01T02:19:05.878Z,99651.33
2017-10-01T02:21:36.162Z,99653.83
2017-10-01T02:24:06.036Z,99652.48
2017-10-01T02:26:35.621Z,99643.09
2017-10-01T02:29:05.985Z,99669.27
2017-10-01T02:31:35.748Z,99673.00
2017-10-01T02:34:05.568Z,99680.53
2017-10-01T02:36:36.021Z,99683.39
2017-10-01T02:39:06.444Z,99689.89
2017-10-01T02:41:36.946Z,99684.45
2017-10-01T02:44:07.732Z,99690.80
2017-10-01T02:46:37.832Z,99668.90
2017-10-01T02:49:07.638Z,99638.13
2017-10-01T02:51:38.063Z,99696.98
2017-10-01T02:54:08.856Z,99699.84
2017-10-01T02:56:38.533Z,99702.70
2017-10-01T02:59:09.293Z,99747.77
2017-10-01T03:01:39.684Z,99653.13
2017-10-01T03:04:10.476Z,99691.40
2017-10-01T03:06:40.558Z,99706.23
2017-10-01T03:09:11.641Z,99696.92
2017-10-01T03:11:57.607Z,99697.48
2017-10-01T03:14:27.892Z,99701.53
2017-10-01T03:16:59.084Z,99727.66
2017-10-01T03:22:26.683Z,99732.11
2017-10-01T03:24:56.787Z,99735.20
2017-10-01T03:27:27.036Z,99678.18
2017-10-01T03:29:56.860Z,99732.66
2017-10-01T03:32:28.105Z,99741.55
2017-10-01T03:34:58.627Z,99742.73
2017-10-01T03:37:28.824Z,99741.55
2017-10-01T03:39:58.737Z,99752.50
2017-10-01T03:42:28.317Z,99752.09
2017-10-01T03:44:59.503Z,99697.45
2017-10-01T03:47:29.408Z,99757.49
2017-10-01T03:50:00.135Z,99691.06
2017-10-01T03:52:29.665Z,99759.43
2017-10-01T03:55:00.029Z,99758.70
2017-10-01T03:57:36.661Z,99756.09
2017-10-01T04:00:06.618Z,99765.37
2017-10-01T04:02:36.873Z,99711.02
2017-10-01T04:05:06.686Z,99765.53
2017-10-01T04:07:37.246Z,99765.14
2017-10-01T04:10:07.192Z,99772.83
2017-10-01T04:12:43.493Z,99776.48
2017-10-01T04:15:13.536Z,99776.80
2017-10-01T04:17:43.650Z,99782.59
2017-10-01T04:20:13.988Z,99779.89
2017-10-01T04:22:43.927Z,99780.29
2017-10-01T04:25:15.371Z,99764.06
2017-10-01T04:27:44.925Z,99766.91
2017-10-01T04:30:14.638Z,99784.34
2017-10-01T04:32:46.194Z,99790.28
2017-10-01T04:35:16.315Z,99788.78
2017-10-01T04:37:54.049Z,99786.48
2017-10-01T04:40:33.039Z,99785.60
2017-10-01T04:43:06.000Z,99800.67
2017-10-01T04:45:36.465Z,99800.92
2017-10-01T04:48:11.071Z,99713.36
2017-10-01T04:50:41.449Z,99801.78
2017-10-01T04:53:11.430Z,99789.20
2017-10-01T04:55:41.333Z,99807.82
2017-10-01T04:58:13.457Z,99847.33
2017-10-01T05:00:43.586Z,99808.38
2017-10-01T05:03:14.956Z,99810.43
2017-10-01T05:05:45.332Z,99810.43
2017-10-01T05:08:15.104Z,99813.88
2017-10-01T05:10:45.076Z,99809.66
2017-10-01T05:13:16.033Z,99813.86
2017-10-01T05:15:48.103Z,99809.08
2017-10-01T05:18:19.824Z,99719.55
2017-10-01T05:20:52.322Z,99796.34
2017-10-01T05:23:22.417Z,99811.63
2017-10-01T05:25:54.480Z,99703.78
2017-10-01T05:28:24.108Z,99814.08
2017-10-01T05:30:54.968Z,99807.58
2017-10-01T05:33:24.859Z,99806.38
2017-10-01T05:35:54.644Z,99767.47
2017-10-01T05:38:24.244Z,99811.38
2017-10-01T05:40:53.956Z,99814.27
2017-10-01T05:43:23.618Z,99802.79
2017-10-01T05:45:55.127Z,99817.28
2017-10-01T05:48:26.241Z,99821.80
2017-10-01T05:50:56.109Z,99823.70
2017-10-01T05:53:26.040Z,99811.81
2017-10-01T05:55:56.745Z,99778.03
2017-10-01T05:58:26.977Z,99844.56
2017-10-01T06:00:56.645Z,99844.80
2017-10-01T06:03:27.113Z,99841.07
2017-10-01T06:05:58.091Z,99823.78
2017-10-01T06:08:27.948Z,99817.03
2017-10-01T06:10:58.138Z,99778.83
2017-10-01T06:13:28.157Z,99820.20
2017-10-01T06:15:57.842Z,99864.56
2017-10-01T06:18:27.908Z,99875.75
2017-10-01T06:20:58.309Z,99835.03
2017-10-01T06:23:29.406Z,99874.16
2017-10-01T06:25:59.846Z,99868.05
2017-10-01T06:28:30.237Z,99884.40
2017-10-01T06:31:02.925Z,99861.72
2017-10-01T06:33:34.926Z,99848.36
2017-10-01T06:36:04.959Z,99847.25
2017-10-01T06:38:35.072Z,99883.84
2017-10-01T06:41:05.160Z,99872.17
2017-10-01T06:43:35.467Z,99889.80
2017-10-01T06:46:05.112Z,99882.65
2017-10-01T06:48:35.485Z,99897.89
2017-10-01T06:51:06.155Z,99897.34
2017-10-01T06:53:35.861Z,99902.33
2017-10-01T06:56:05.808Z,99906.53
2017-10-01T06:58:36.361Z,99888.45
2017-10-01T07:01:06.226Z,99907.09
2017-10-01T07:03:35.869Z,99892.55
2017-10-01T07:06:05.469Z,99910.42
2017-10-01T07:08:34.950Z,99908.83
2017-10-01T07:11:04.711Z,99908.67
2017-10-01T07:13:34.474Z,99913.12
2017-10-01T07:16:04.605Z,99915.42
2017-10-01T07:18:34.733Z,99882.72
2017-10-01T07:21:06.761Z,99888.66
2017-10-01T07:23:37.283Z,99927.31
2017-10-01T07:26:08.682Z,99929.62
2017-10-01T07:28:39.944Z,99933.11
2017-10-01T07:31:11.531Z,99931.36
2017-10-01T07:33:45.594Z,99937.72
2017-10-01T07:36:16.055Z,99924.91
2017-10-01T07:38:46.023Z,99943.74
2017-10-01T07:41:17.280Z,99946.59
2017-10-01T07:43:49.915Z,99853.11
2017-10-01T07:46:21.462Z,99945.09
2017-10-01T07:48:58.284Z,99950.48
2017-10-01T07:51:35.557Z,99946.68
2017-10-01T07:54:07.852Z,99924.63
2017-10-01T07:56:39.919Z,99949.28
2017-10-01T07:59:10.202Z,99946.98
2017-10-01T08:01:40.947Z,99945.23
2017-10-01T08:04:14.402Z,99947.77
2017-10-01T08:06:44.527Z,99947.77
2017-10-01T08:09:14.828Z,99948.57
2017-10-01T08:11:45.296Z,99854.22
2017-10-01T08:14:15.344Z,99949.36
2017-10-01T08:16:45.123Z,99956.51
2017-10-01T08:19:15.404Z,99962.85
2017-10-01T08:21:46.627Z,99962.70
2017-10-01T08:24:16.111Z,99944.30
2017-10-01T08:26:46.023Z,99963.09
2017-10-01T08:29:16.434Z,99974.28
2017-10-01T08:31:46.293Z,99967.30
2017-10-01T08:34:15.971Z,99962.15
2017-10-01T08:36:46.062Z,99965.48
2017-10-01T08:39:16.795Z,99963.55
2017-10-01T08:41:46.941Z,99965.55
2017-10-01T08:44:17.258Z,99961.34
2017-10-01T08:46:50.778Z,99964.28
2017-10-01T08:49:20.898Z,99955.64
2017-10-01T08:51:55.150Z,99884.54
2017-10-01T08:54:28.532Z,99969.60
2017-10-01T08:56:59.436Z,99970.45
2017-10-01T08:59:33.999Z,99971.49
2017-10-01T09:02:06.861Z,99967.84
2017-10-01T09:04:36.867Z,99953.00
2017-10-01T09:07:07.886Z,99978.16
2017-10-01T09:09:41.879Z,99977.54
2017-10-01T09:12:12.372Z,99953.34
2017-10-01T09:14:44.537Z,99968.39
2017-10-01T09:17:15.540Z,99975.94
2017-10-01T09:19:49.543Z,99941.98
2017-10-01T09:22:20.809Z,100059.69
2017-10-01T09:24:52.472Z,99972.92
2017-10-01T09:27:22.360Z,99975.07
2017-10-01T09:29:55.046Z,99975.88
2017-10-01T09:32:25.415Z,99976.98
2017-10-01T09:34:57.016Z,99954.53
2017-10-01T09:37:28.490Z,99975.31
2017-10-01T09:39:58.011Z,99954.52
2017-10-01T09:42:28.901Z,99958.32
2017-10-01T09:44:59.584Z,99933.02
2017-10-01T09:47:31.332Z,99995.39
2017-10-01T09:50:02.010Z,99900.27
2017-10-01T09:52:33.028Z,100003.25
2017-10-01T09:55:04.363Z,99958.87
2017-10-01T09:57:34.579Z,99925.23
2017-10-01T10:00:10.556Z,99954.28
2017-10-01T10:02:41.051Z,99930.33
2017-10-01T10:05:24.452Z,99972.84
2017-10-01T10:08:16.827Z,99951.01
2017-10-01T10:13:46.373Z,99966.55
2017-10-01T10:16:17.866Z,99946.56
2017-10-01T10:18:50.337Z,99949.61
2017-10-01T10:21:20.677Z,99963.00
2017-10-01T10:23:55.142Z,99961.25
2017-10-01T10:26:25.972Z,99959.91
2017-10-01T10:28:56.133Z,99962.20
2017-10-01T10:31:27.058Z,99851.94
2017-10-01T10:33:58.754Z,99931.42
2017-10-01T10:36:29.360Z,99950.38
2017-10-01T10:39:00.536Z,99952.28
2017-10-01T10:41:30.233Z,99936.58
2017-10-01T10:44:00.677Z,99947.27
2017-10-01T10:46:30.582Z,99954.42
2017-10-01T10:49:00.513Z,99957.36
2017-10-01T10:51:30.854Z,99937.46
2017-10-01T10:54:01.073Z,99959.11
2017-10-01T10:56:31.249Z,99950.95
2017-10-01T10:59:01.134Z,99964.20
2017-10-01T11:01:31.569Z,100019.53
2017-10-01T11:04:01.534Z,99940.95
2017-10-01T11:06:31.333Z,99955.76
2017-10-01T11:09:01.189Z,99938.55
2017-10-01T11:11:30.811Z,99953.54
2017-10-01T11:14:01.664Z,99947.59
2017-10-01T11:16:31.536Z,99949.18
2017-10-01T11:19:01.526Z,99951.33
2017-10-01T11:21:31.146Z,99949.42
2017-10-01T11:24:02.240Z,99948.87
2017-10-01T11:26:32.328Z,99953.53
2017-10-01T11:29:02.469Z,99969.20
2017-10-01T11:31:32.975Z,99953.88
2017-10-01T11:34:03.888Z,99943.88
2017-10-01T11:36:33.573Z,99945.88
2017-10-01T11:39:05.694Z,99937.77
2017-10-01T11:41:36.004Z,99912.91
2017-10-01T11:44:06.073Z,99925.23
2017-10-01T11:46:36.358Z,99927.19
2017-10-01T11:49:09.511Z,99927.42
2017-10-01T11:51:39.399Z,99912.10
2017-10-01T11:54:09.473Z,99927.27
2017-10-01T11:56:39.591Z,99932.52
2017-10-01T11:59:09.333Z,99921.55
2017-10-01T12:01:39.249Z,99923.70
2017-10-01T12:04:09.654Z,99882.81
2017-10-01T12:06:39.579Z,99916.23
2017-10-01T12:09:10.901Z,99880.36
2017-10-01T12:11:40.847Z,99922.80
2017-10-01T12:14:11.322Z,99923.75
2017-10-01T12:16:41.108Z,99923.59
2017-10-01T12:19:11.351Z,99923.28
2017-10-01T12:21:41.314Z,99917.73
2017-10-01T12:24:12.153Z,99916.38
2017-10-01T12:26:41.627Z,99915.82
2017-10-01T12:29:11.933Z,99892.83
2017-10-01T12:31:42.559Z,99910.66
2017-10-01T12:34:12.295Z,99912.80
2017-10-01T12:36:42.132Z,99907.41
2017-10-01T12:39:13.728Z,99914.31
2017-10-01T12:41:44.651Z,99918.92
2017-10-01T12:44:16.117Z,99918.52
2017-10-01T12:46:47.103Z,99922.81
2017-10-01T12:49:16.645Z,99926.86
2017-10-01T12:51:46.926Z,99905.43
2017-10-01T12:54:17.602Z,99904.16
2017-10-01T12:56:48.741Z,99918.81
2017-10-01T12:59:20.176Z,99919.61
2017-10-01T13:01:54.726Z,99920.16
2017-10-01T13:04:24.401Z,99899.66
2017-10-01T13:06:57.015Z,99917.06
2017-10-01T13:09:26.985Z,99924.61
2017-10-01T13:11:56.990Z,99905.77
2017-10-01T13:14:27.443Z,99918.20
2017-10-01T13:16:57.404Z,99920.16
2017-10-01T13:19:27.394Z,99924.45
2017-10-01T13:21:57.684Z,99926.91
2017-10-01T13:24:27.860Z,99924.94
2017-10-01T13:26:57.198Z,99911.95
2017-10-01T13:29:27.337Z,99921.12
2017-10-01T13:31:56.895Z,99902.50
2017-10-01T13:34:26.430Z,99909.92
2017-10-01T13:36:56.143Z,99909.77
2017-10-01T13:39:25.710Z,99914.03
2017-10-01T13:41:55.134Z,99859.01
2017-10-01T13:44:26.059Z,99911.17
2017-10-01T13:46:55.562Z,99909.66
2017-10-01T13:49:25.140Z,99914.67
2017-10-01T13:51:54.868Z,99913.16
2017-10-01T13:54:24.393Z,99888.03
2017-10-01T13:56:54.386Z,99902.75
2017-10-01T13:59:24.655Z,99882.62
2017-10-01T14:01:54.255Z,99901.41
2017-10-01T14:04:23.954Z,99880.88
2017-10-01T14:06:54.507Z,99892.52
2017-10-01T14:09:25.136Z,99890.36
2017-10-01T14:11:55.292Z,99898.31
2017-10-01T14:14:26.290Z,99891.40
2017-10-01T14:16:57.588Z,99863.01
2017-10-01T14:19:27.604Z,99891.88
2017-10-01T14:21:59.099Z,99890.13
2017-10-01T14:24:28.961Z,99886.64
2017-10-01T14:27:00.286Z,99892.03
2017-10-01T14:29:29.853Z,99892.91
2017-10-01T14:32:03.499Z,99897.67
2017-10-01T14:34:33.056Z,99891.31
2017-10-01T14:37:02.688Z,99879.29
2017-10-01T14:39:33.589Z,99837.97
2017-10-01T14:42:05.133Z,99858.92
2017-10-01T14:44:34.887Z,99887.61
2017-10-01T14:47:04.834Z,99888.38
2017-10-01T14:49:34.942Z,99889.36
2017-10-01T14:52:05.926Z,99891.27
2017-10-01T14:54:36.118Z,99834.33
2017-10-01T14:57:06.911Z,99884.67
2017-10-01T14:59:37.438Z,99880.23
2017-10-01T15:02:09.142Z,99884.83
2017-10-01T15:04:39.928Z,99864.94
2017-10-01T15:07:09.540Z,99861.61
2017-10-01T15:09:40.576Z,99873.63
2017-10-01T15:12:10.392Z,99852.31
2017-10-01T15:14:40.270Z,99870.14
2017-10-01T15:17:11.018Z,99873.23
2017-10-01T15:19:41.207Z,99868.62
2017-10-01T15:22:11.586Z,99823.16
2017-10-01T15:24:41.916Z,99893.73
2017-10-01T15:27:11.673Z,99864.27
2017-10-01T15:29:41.743Z,99826.70
2017-10-01T15:32:13.072Z,99838.39
2017-10-01T15:34:43.125Z,99837.16
2017-10-01T15:37:14.876Z,99841.59
2017-10-01T15:39:45.472Z,99854.02
2017-10-01T15:42:15.036Z,99876.45
2017-10-01T15:44:44.634Z,99795.23
2017-10-01T15:47:14.369Z,99868.95
2017-10-01T15:49:44.094Z,99866.25
2017-10-01T15:52:13.772Z,99863.15
2017-10-01T15:54:45.735Z,99792.29
2017-10-01T15:57:16.379Z,99864.73
2017-10-01T15:59:46.089Z,99867.04
2017-10-01T16:02:16.368Z,99862.98
2017-10-01T16:04:46.160Z,99846.13
2017-10-01T16:07:18.790Z,99864.18
2017-10-01T16:09:49.271Z,99867.52
2017-10-01T16:12:19.940Z,99861.32
2017-10-01T16:14:51.001Z,99863.39
2017-10-01T16:17:21.643Z,99857.75
2017-10-01T16:19:51.654Z,99845.80
2017-10-01T16:22:21.565Z,99859.20
2017-10-01T16:24:51.476Z,99863.02
2017-10-01T16:27:25.158Z,99809.81
2017-10-01T16:29:56.762Z,99864.77
2017-10-01T16:32:26.653Z,99865.71
2017-10-01T16:35:09.802Z,99862.38
2017-10-01T16:37:39.843Z,99856.73
2017-10-01T16:40:09.807Z,99857.55
2017-10-01T16:42:39.330Z,99793.20
2017-10-01T16:45:10.729Z,99787.80
2017-10-01T16:47:40.641Z,99855.81
2017-10-01T16:50:15.119Z,99853.51
2017-10-01T16:52:45.016Z,99854.46
2017-10-01T16:55:15.917Z,99851.76
2017-10-01T16:57:49.593Z,99860.81
2017-10-01T17:00:19.858Z,99860.41
2017-10-01T17:02:50.459Z,99862.16
2017-10-01T17:05:21.391Z,99869.47
2017-10-01T17:07:53.242Z,99857.01
2017-10-01T17:10:25.912Z,99850.64
2017-10-01T17:12:56.514Z,99869.38
2017-10-01T17:15:28.518Z,99866.84
2017-10-01T17:17:58.239Z,99873.94
2017-10-01T17:20:29.359Z,99869.09
2017-10-01T17:23:00.054Z,99855.84
2017-10-01T17:25:29.908Z,99870.20
2017-10-01T17:28:00.587Z,99873.61
2017-10-01T17:30:33.133Z,99874.96
2017-10-01T17:33:03.319Z,99858.85
2017-10-01T17:35:34.708Z,99861.08
2017-10-01T17:38:04.465Z,99810.03
2017-10-01T17:40:41.702Z,99881.80
2017-10-01T17:43:12.196Z,99885.05
2017-10-01T17:45:42.312Z,99882.50
2017-10-01T17:48:12.729Z,99888.06
2017-10-01T17:50:43.501Z,99884.02
2017-10-01T17:53:14.174Z,99886.71
2017-10-01T17:55:46.840Z,99881.78
2017-10-01T17:58:19.024Z,99872.97
2017-10-01T18:00:50.223Z,99871.81
2017-10-01T18:03:20.487Z,99930.28
2017-10-01T18:05:50.319Z,99889.00
2017-10-01T18:08:20.139Z,99867.12
2017-10-01T18:10:50.433Z,99885.11
2017-10-01T18:13:21.522Z,99865.63
2017-10-01T18:15:52.307Z,99883.36
2017-10-01T18:18:26.351Z,99882.02
2017-10-01T18:20:56.851Z,99886.06
2017-10-01T18:23:26.940Z,99888.77
2017-10-01T18:26:00.644Z,99889.95
2017-10-01T18:28:32.789Z,99883.52
2017-10-01T18:31:04.485Z,99846.59
2017-10-01T18:33:35.355Z,99883.23
2017-10-01T18:36:10.707Z,99878.78
2017-10-01T18:38:41.208Z,99864.49
2017-10-01T18:41:14.609Z,99866.55
2017-10-01T18:43:46.070Z,99828.59
2017-10-01T18:46:18.758Z,99838.80
2017-10-01T18:48:49.807Z,99871.14
2017-10-01T18:51:21.553Z,99871.37
2017-10-01T18:53:52.760Z,99904.98
2017-10-01T18:56:22.930Z,99875.20
2017-10-01T18:58:53.229Z,99874.17
2017-10-01T19:01:23.114Z,99876.66
2017-10-01T19:03:52.903Z,99879.66
2017-10-01T19:06:23.238Z,99877.52
2017-10-01T19:09:02.777Z,99909.27
2017-10-01T19:11:34.542Z,99876.64
2017-10-01T19:14:06.001Z,99876.00
2017-10-01T19:16:48.896Z,99826.72
2017-10-01T19:19:19.154Z,99851.70
2017-10-01T19:21:53.612Z,99813.39
2017-10-01T19:24:23.664Z,99878.70
2017-10-01T19:26:55.295Z,99869.92
2017-10-01T19:29:25.419Z,99884.05
2017-10-01T19:31:56.347Z,99868.27
2017-10-01T19:34:27.924Z,99845.20
2017-10-01T19:36:58.282Z,99880.07
2017-10-01T19:39:27.991Z,99871.58
2017-10-01T19:41:58.728Z,99870.23
2017-10-01T19:44:28.897Z,99853.75
2017-10-01T19:46:58.990Z,99838.77
2017-10-01T19:49:28.599Z,99869.83
2017-10-01T19:51:58.706Z,99872.13
2017-10-01T19:54:29.149Z,99876.18
2017-10-01T19:56:59.243Z,99877.28
2017-10-01T19:59:29.788Z,99857.80
2017-10-01T20:02:02.669Z,99850.02
2017-10-01T20:04:34.606Z,99856.75
2017-10-01T20:07:06.672Z,99883.66
2017-10-01T20:09:36.895Z,99879.62
2017-10-01T20:12:07.737Z,99820.70
2017-10-01T20:14:37.697Z,99844.88
2017-10-01T20:17:08.010Z,99876.33
2017-10-01T20:19:38.250Z,99880.23
2017-10-01T20:22:08.682Z,99840.67
2017-10-01T20:24:38.646Z,99868.89
2017-10-01T20:27:09.174Z,99854.25
2017-10-01T20:29:38.836Z,99860.19
2017-10-01T20:32:09.774Z,99878.42
2017-10-01T20:34:40.197Z,99866.70
2017-10-01T20:37:10.178Z,99876.98
2017-10-01T20:39:39.893Z,99880.64
2017-10-01T20:42:11.959Z,99861.22
2017-10-01T20:44:43.837Z,99845.69
2017-10-01T20:47:16.736Z,99879.20
2017-10-01T20:49:49.606Z,99858.52
2017-10-01T20:52:20.898Z,99857.33
2017-10-01T20:54:52.303Z,99858.43
2017-10-01T20:57:24.399Z,99878.56
2017-10-01T20:59:56.225Z,99888.41
2017-10-01T21:02:26.977Z,99873.17
2017-10-01T21:05:00.742Z,99871.27
2017-10-01T21:10:50.345Z,99856.28
2017-10-01T21:13:29.516Z,99870.42
2017-10-01T21:16:09.728Z,99875.97
2017-10-01T21:19:00.962Z,99874.77
2017-10-01T21:21:32.204Z,99871.94
2017-10-01T21:24:02.986Z,99867.09
2017-10-01T21:26:34.391Z,99862.09
2017-10-01T21:29:09.473Z,99857.50
2017-10-01T21:31:41.540Z,99854.40
2017-10-01T21:34:13.070Z,99853.61
2017-10-01T21:36:43.369Z,99832.13
2017-10-01T21:39:14.286Z,99849.56
2017-10-01T21:41:44.040Z,99827.84
2017-10-01T21:44:13.529Z,99849.31
2017-10-01T21:46:43.417Z,99829.50
2017-10-01T21:49:14.585Z,99841.38
2017-10-01T21:51:44.533Z,99841.94
2017-10-01T21:54:13.992Z,99831.70
2017-10-01T21:56:43.998Z,99825.35
2017-10-01T21:59:13.531Z,99820.91
2017-10-01T22:01:43.540Z,99821.70
2017-10-01T22:04:13.751Z,99820.75
2017-10-01T22:06:43.874Z,99815.20
2017-10-01T22:09:13.502Z,99817.90
2017-10-01T22:11:43.590Z,99811.70
2017-10-01T22:14:13.755Z,99804.72
2017-10-01T22:16:44.515Z,99783.56
2017-10-01T22:19:14.367Z,99898.09
2017-10-01T22:21:44.579Z,99775.48
2017-10-01T22:24:14.181Z,99799.83
2017-10-01T22:26:44.047Z,99821.56
2017-10-01T22:29:14.509Z,99763.81
2017-10-01T22:31:46.519Z,99755.81
2017-10-01T22:34:16.974Z,99825.04
2017-10-01T22:36:47.166Z,99786.63
2017-10-01T22:39:17.186Z,99786.00
2017-10-01T22:41:49.428Z,99790.70
2017-10-01T22:44:19.105Z,99777.66
2017-10-01T22:46:50.271Z,99744.41
2017-10-01T22:49:20.814Z,99772.27
2017-10-01T22:51:50.913Z,99774.02
2017-10-01T22:54:20.636Z,99797.29
2017-10-01T22:56:50.739Z,99601.61
2017-10-01T22:59:20.499Z,99742.42
2017-10-01T23:01:50.383Z,99766.03
2017-10-01T23:04:20.534Z,99764.92
2017-10-01T23:06:53.683Z,99795.94
2017-10-01T23:09:23.801Z,99763.02
2017-10-01T23:11:54.359Z,99759.92
2017-10-01T23:14:23.883Z,99763.02
2017-10-01T23:16:53.763Z,99770.31
2017-10-01T23:19:24.228Z,99751.66
2017-10-01T23:21:56.623Z,99736.32
2017-10-01T23:24:26.355Z,99756.03
2017-10-01T23:26:57.102Z,99756.03
2017-10-01T23:29:26.859Z,99749.13
2017-10-01T23:31:58.528Z,99704.20
2017-10-01T23:34:29.342Z,99713.06
2017-10-01T23:37:02.002Z,99713.20
2017-10-01T23:39:35.562Z,99642.31
2017-10-01T23:42:10.293Z,99749.82
2017-10-01T23:44:40.016Z,99747.68
2017-10-01T23:47:10.187Z,99726.37
2017-10-01T23:49:45.779Z,99673.83
2017-10-01T23:52:16.719Z,99729.35
2017-10-01T23:54:46.497Z,99710.20
2017-10-01T23:57:18.217Z,99696.25
2017-10-01T23:59:49.332Z,99698.06
